Time;durP1;ratioP1;P1;durP2;ratioP2;P2;SDS_P1;SDS_P2;PMS_P1;PMS_P2;Temp;Humidity;BMP_temperature;BMP_pressure;BME280_temperature;BME280_humidity;BME280_pressure;Samples;Min_cycle;Max_cycle;Signal;HPM_P1;HPM_P2
2022/05/31 00:01:59;;;;;;;2.17;1.95;;;12.20;97.50;;;;;;6047664;23;20208;-73
2022/05/31 00:04:27;;;;;;;1.90;1.80;;;12.20;97.70;;;;;;6047333;23;20660;-73
2022/05/31 00:06:54;;;;;;;1.95;1.85;;;12.20;97.60;;;;;;6047056;23;20275;-73
2022/05/31 00:09:21;;;;;;;2.42;2.22;;;12.20;97.80;;;;;;6054166;23;20264;-73
2022/05/31 00:11:50;;;;;;;2.38;2.25;;;12.20;97.50;;;;;;6049746;23;20213;-74
2022/05/31 00:14:17;;;;;;;2.10;1.90;;;12.30;97.70;;;;;;6059082;23;20250;-74
2022/05/31 00:16:45;;;;;;;1.95;1.75;;;12.20;97.60;;;;;;6050342;23;20275;-73
2022/05/31 00:19:13;;;;;;;2.40;1.85;;;12.20;97.90;;;;;;6050009;23;20207;-74
2022/05/31 00:21:45;;;;;;;2.47;2.33;;;12.20;97.90;;;;;;6047145;23;20691;-73
2022/05/31 00:24:17;;;;;;;2.50;2.30;;;12.20;98.00;;;;;;6057104;23;20193;-73
2022/05/31 00:26:44;;;;;;;3.35;2.47;;;12.20;98.20;;;;;;6036628;23;20177;-73
2022/05/31 00:29:13;;;;;;;2.00;1.90;;;12.20;98.40;;;;;;6044828;23;20271;-73
2022/05/31 00:31:43;;;;;;;1.95;1.77;;;12.20;98.60;;;;;;6057669;23;20323;-73
2022/05/31 00:34:12;;;;;;;3.28;2.20;;;12.20;99.10;;;;;;6050168;23;20204;-74
2022/05/31 00:36:41;;;;;;;2.30;2.10;;;12.10;99.30;;;;;;6043535;23;20263;-73
2022/05/31 00:39:08;;;;;;;2.50;2.30;;;12.10;99.60;;;;;;6048458;23;20197;-73
2022/05/31 00:41:35;;;;;;;2.50;2.30;;;12.00;99.40;;;;;;6058584;23;20262;-73
2022/05/31 00:44:08;;;;;;;2.20;2.00;;;11.90;99.20;;;;;;6053326;23;20193;-73
2022/05/31 00:46:44;;;;;;;2.40;2.20;;;11.90;99.40;;;;;;6053911;23;20271;-73
2022/05/31 00:49:13;;;;;;;2.50;2.30;;;11.90;99.40;;;;;;6048034;23;20264;-73
2022/05/31 00:51:44;;;;;;;3.00;2.40;;;11.90;99.90;;;;;;6052674;23;20328;-74
2022/05/31 00:54:14;;;;;;;2.53;2.30;;;11.90;99.80;;;;;;6051674;23;20205;-73
2022/05/31 00:56:42;;;;;;;2.80;2.60;;;11.80;99.90;;;;;;6055346;23;21483;-73
2022/05/31 00:59:19;;;;;;;2.40;2.30;;;11.80;99.90;;;;;;6047700;23;20526;-74
2022/05/31 01:01:51;;;;;;;2.30;2.10;;;11.80;99.90;;;;;;6050823;23;20248;-74
2022/05/31 01:04:21;;;;;;;2.20;2.10;;;11.80;99.90;;;;;;6054564;23;20659;-73
2022/05/31 01:06:48;;;;;;;3.38;2.33;;;11.80;99.90;;;;;;6053287;23;20251;-73
2022/05/31 01:09:15;;;;;;;2.45;2.30;;;11.80;99.90;;;;;;6050116;23;20637;-73
2022/05/31 01:11:43;;;;;;;2.30;2.10;;;11.80;99.90;;;;;;6046753;23;20210;-73
2022/05/31 01:14:13;;;;;;;2.40;2.20;;;11.80;99.90;;;;;;6052869;23;20309;-74
2022/05/31 01:16:57;;;;;;;3.35;2.15;;;11.70;99.90;;;;;;6050927;23;20416;-73
2022/05/31 01:22:11;;;;;;;2.40;2.20;;;11.70;99.90;;;;;;6046188;23;20244;-73
2022/05/31 01:24:47;;;;;;;2.38;2.20;;;11.60;99.90;;;;;;6051775;23;20189;-74
2022/05/31 01:27:31;;;;;;;2.60;2.40;;;11.60;99.90;;;;;;6052860;23;20263;-73
2022/05/31 01:30:02;;;;;;;2.78;2.58;;;11.50;99.90;;;;;;6045971;23;20272;-74
2022/05/31 01:32:29;;;;;;;3.50;2.30;;;11.50;99.90;;;;;;6049305;23;20226;-73
2022/05/31 01:35:02;;;;;;;2.95;2.53;;;11.50;99.90;;;;;;6056463;23;20205;-74
2022/05/31 01:37:41;;;;;;;2.58;2.38;;;11.50;99.90;;;;;;6051171;23;20187;-73
2022/05/31 01:40:12;;;;;;;2.80;2.60;;;11.50;99.90;;;;;;6059082;23;20228;-73
2022/05/31 01:42:42;;;;;;;2.55;2.35;;;11.50;99.90;;;;;;6047440;23;20214;-74
2022/05/31 01:45:14;;;;;;;2.67;2.30;;;11.60;99.90;;;;;;6053406;23;20197;-74
2022/05/31 01:47:42;;;;;;;2.38;2.17;;;11.60;99.90;;;;;;6045460;23;20201;-74
2022/05/31 01:50:12;;;;;;;2.97;2.60;;;11.60;99.90;;;;;;6055626;23;20197;-73
2022/05/31 01:52:42;;;;;;;2.38;2.17;;;11.60;99.90;;;;;;6047037;23;20209;-73
2022/05/31 01:55:11;;;;;;;3.17;2.10;;;11.60;99.90;;;;;;6052433;23;20189;-73
2022/05/31 01:57:42;;;;;;;2.35;2.15;;;11.60;99.90;;;;;;6042727;23;20192;-73
2022/05/31 02:00:12;;;;;;;2.45;2.25;;;11.60;99.90;;;;;;6052917;23;20251;-74
2022/05/31 02:02:39;;;;;;;2.60;2.40;;;11.50;99.90;;;;;;6047189;23;20490;-74
2022/05/31 02:05:07;;;;;;;2.20;2.00;;;11.50;99.90;;;;;;6053922;23;20216;-74
2022/05/31 02:07:34;;;;;;;2.67;2.47;;;11.50;99.90;;;;;;6051967;23;20193;-73
2022/05/31 02:10:03;;;;;;;2.75;2.55;;;11.50;99.90;;;;;;6054780;23;20271;-73
2022/05/31 02:12:31;;;;;;;2.70;2.50;;;11.50;99.90;;;;;;6051679;23;20266;-73
2022/05/31 02:14:59;;;;;;;2.85;2.40;;;11.50;99.90;;;;;;6056784;23;20346;-74
2022/05/31 02:17:26;;;;;;;2.50;2.30;;;11.40;99.90;;;;;;6047698;23;20548;-73
2022/05/31 02:19:53;;;;;;;2.72;2.53;;;11.40;99.90;;;;;;6050241;23;20193;-73
2022/05/31 02:22:22;;;;;;;2.50;2.30;;;11.40;99.90;;;;;;6050636;23;20312;-73
2022/05/31 02:24:49;;;;;;;3.20;2.85;;;11.40;99.90;;;;;;6047653;23;20645;-73
2022/05/31 02:27:17;;;;;;;2.92;2.40;;;11.40;99.90;;;;;;6044942;23;20189;-73
2022/05/31 02:29:45;;;;;;;3.17;2.65;;;11.40;99.90;;;;;;6046004;23;20275;-73
2022/05/31 02:32:14;;;;;;;2.78;2.42;;;11.40;99.90;;;;;;6052543;23;20221;-73
2022/05/31 02:34:43;;;;;;;2.60;2.40;;;11.40;99.90;;;;;;6050882;23;20269;-73
2022/05/31 02:37:11;;;;;;;2.85;2.65;;;11.40;99.90;;;;;;6052152;23;20195;-73
2022/05/31 02:39:38;;;;;;;4.82;2.80;;;11.40;99.90;;;;;;6055696;23;20200;-74
2022/05/31 02:42:06;;;;;;;2.85;2.63;;;11.40;99.90;;;;;;6040637;23;20343;-74
2022/05/31 02:44:35;;;;;;;3.08;2.70;;;11.40;99.90;;;;;;6056866;23;20192;-73
2022/05/31 02:47:02;;;;;;;2.70;2.50;;;11.40;99.90;;;;;;6043641;23;20195;-74
2022/05/31 02:49:29;;;;;;;2.53;2.33;;;11.40;99.90;;;;;;6046010;23;20232;-73
2022/05/31 02:51:59;;;;;;;3.00;2.55;;;11.30;99.90;;;;;;6043974;23;20213;-73
2022/05/31 02:54:27;;;;;;;3.05;2.85;;;11.30;99.90;;;;;;6052563;23;20557;-74
2022/05/31 02:56:54;;;;;;;2.90;2.70;;;11.20;99.90;;;;;;6041995;23;20640;-73
2022/05/31 02:59:21;;;;;;;3.00;2.80;;;11.20;99.90;;;;;;6050645;23;20201;-74
2022/05/31 03:01:52;;;;;;;3.05;2.75;;;11.20;99.90;;;;;;6058174;23;20220;-73
2022/05/31 03:04:20;;;;;;;3.00;2.80;;;11.10;99.90;;;;;;6051343;23;20268;-73
2022/05/31 03:06:47;;;;;;;3.10;2.80;;;11.10;99.90;;;;;;6058591;23;20272;-73
2022/05/31 03:09:15;;;;;;;3.50;3.20;;;11.10;99.90;;;;;;6044884;23;20584;-73
2022/05/31 03:11:45;;;;;;;3.33;2.90;;;11.00;99.90;;;;;;6041206;23;20248;-73
2022/05/31 03:14:15;;;;;;;3.40;3.10;;;10.90;99.90;;;;;;6046979;23;20300;-73
2022/05/31 03:16:45;;;;;;;3.40;3.10;;;10.90;99.90;;;;;;6046680;23;20533;-73
2022/05/31 03:19:19;;;;;;;3.20;3.00;;;10.80;99.90;;;;;;6047777;23;20272;-73
2022/05/31 03:21:52;;;;;;;3.53;3.20;;;10.80;99.90;;;;;;6054433;23;20239;-73
2022/05/31 03:24:22;;;;;;;4.40;3.00;;;10.80;99.90;;;;;;6052254;23;20198;-73
2022/05/31 03:26:52;;;;;;;4.18;3.50;;;10.80;99.90;;;;;;6045652;23;20226;-73
2022/05/31 03:29:19;;;;;;;4.38;3.35;;;10.80;99.90;;;;;;6044031;23;20283;-73
2022/05/31 03:31:46;;;;;;;4.97;3.25;;;10.80;99.90;;;;;;6055783;23;20303;-74
2022/05/31 03:34:14;;;;;;;3.40;3.20;;;10.80;99.90;;;;;;6041680;23;20223;-74
2022/05/31 03:36:41;;;;;;;3.72;3.42;;;10.90;99.90;;;;;;6056909;23;20189;-74
2022/05/31 03:39:08;;;;;;;2.88;2.67;;;10.90;99.90;;;;;;6055820;23;20201;-73
2022/05/31 03:41:36;;;;;;;3.72;3.20;;;10.90;99.90;;;;;;6055768;23;20407;-73
2022/05/31 03:44:04;;;;;;;3.50;3.20;;;10.90;99.90;;;;;;6048482;23;20267;-73
2022/05/31 03:46:31;;;;;;;4.72;2.90;;;11.00;99.90;;;;;;6050737;23;20783;-72
2022/05/31 03:48:59;;;;;;;2.88;2.67;;;10.90;99.90;;;;;;6043605;23;20292;-74
2022/05/31 03:51:27;;;;;;;3.40;3.10;;;10.90;99.90;;;;;;6047923;23;20283;-73
2022/05/31 03:53:54;;;;;;;3.22;2.92;;;10.90;99.90;;;;;;6049551;23;20206;-73
2022/05/31 03:56:21;;;;;;;2.90;2.70;;;10.80;99.90;;;;;;6047559;23;20185;-72
2022/05/31 03:58:48;;;;;;;2.90;2.65;;;10.90;99.90;;;;;;6056292;23;20272;-73
2022/05/31 04:01:18;;;;;;;3.40;3.10;;;10.90;99.90;;;;;;6054588;23;20776;-73
2022/05/31 04:03:45;;;;;;;3.15;2.95;;;10.90;99.90;;;;;;6047320;23;20193;-73
2022/05/31 04:06:13;;;;;;;2.65;2.45;;;11.00;99.90;;;;;;6053285;23;20223;-73
2022/05/31 04:08:41;;;;;;;3.08;2.78;;;11.00;99.90;;;;;;6047585;23;20220;-73
2022/05/31 04:11:08;;;;;;;3.38;2.80;;;11.10;99.90;;;;;;6047411;23;20291;-73
2022/05/31 04:13:35;;;;;;;3.50;3.20;;;11.10;99.90;;;;;;6053086;23;20615;-74
2022/05/31 04:16:07;;;;;;;3.25;2.95;;;11.10;99.90;;;;;;6047922;23;20197;-74
2022/05/31 04:18:34;;;;;;;3.88;3.58;;;11.10;99.90;;;;;;6056180;23;20206;-73
2022/05/31 04:21:02;;;;;;;3.30;3.10;;;11.10;99.90;;;;;;6054204;23;20714;-73
2022/05/31 04:26:16;;;;;;;3.40;3.10;;;11.00;99.90;;;;;;6054095;23;20216;-73
2022/05/31 04:28:43;;;;;;;3.28;2.90;;;11.10;99.90;;;;;;6049357;23;20189;-73
2022/05/31 04:31:10;;;;;;;3.50;3.20;;;11.10;99.90;;;;;;6055302;23;20208;-74
2022/05/31 04:33:38;;;;;;;3.60;3.30;;;11.10;99.90;;;;;;6056647;23;20184;-73
2022/05/31 04:36:08;;;;;;;3.95;3.65;;;11.10;99.90;;;;;;6052105;23;20188;-74
2022/05/31 04:38:35;;;;;;;4.85;4.10;;;11.00;99.90;;;;;;6054056;23;20181;-73
2022/05/31 04:41:03;;;;;;;4.70;4.00;;;10.80;99.90;;;;;;6050892;23;20220;-73
2022/05/31 04:43:32;;;;;;;4.03;3.70;;;10.60;99.90;;;;;;6055784;23;20263;-74
2022/05/31 04:45:59;;;;;;;4.45;4.05;;;10.40;99.90;;;;;;6053747;23;20187;-74
2022/05/31 04:48:26;;;;;;;4.43;3.95;;;10.20;99.90;;;;;;6052255;23;20234;-71
2022/05/31 04:50:53;;;;;;;4.05;3.65;;;10.20;99.90;;;;;;6041959;23;20710;-72
2022/05/31 04:53:20;;;;;;;3.85;3.55;;;10.20;99.90;;;;;;6054560;23;20254;-72
2022/05/31 04:55:47;;;;;;;4.40;4.05;;;10.20;99.90;;;;;;6051036;23;20260;-73
2022/05/31 04:58:14;;;;;;;5.57;3.85;;;10.20;99.90;;;;;;6048034;23;20196;-78
2022/05/31 05:00:42;;;;;;;4.05;3.25;;;10.20;99.90;;;;;;6055136;23;20254;-75
2022/05/31 05:03:09;;;;;;;4.13;3.72;;;10.30;99.90;;;;;;6053413;23;20549;-75
2022/05/31 05:05:39;;;;;;;4.47;4.07;;;10.40;99.90;;;;;;6046053;23;21139;-75
2022/05/31 05:08:06;;;;;;;4.22;3.67;;;10.40;99.90;;;;;;6047516;23;20196;-75
2022/05/31 05:10:33;;;;;;;4.00;3.70;;;10.40;99.90;;;;;;6049271;23;20275;-74
2022/05/31 05:13:00;;;;;;;5.15;4.20;;;10.40;99.90;;;;;;6048481;23;20198;-75
2022/05/31 05:15:27;;;;;;;4.07;3.78;;;10.50;99.90;;;;;;6052050;23;20266;-76
2022/05/31 05:17:56;;;;;;;4.25;3.95;;;10.50;99.90;;;;;;6055513;23;20196;-75
2022/05/31 05:20:23;;;;;;;4.57;4.18;;;10.50;99.90;;;;;;6051892;23;20254;-75
2022/05/31 05:22:50;;;;;;;4.60;4.20;;;10.50;99.90;;;;;;6054640;23;20219;-75
2022/05/31 05:25:17;;;;;;;5.18;4.15;;;10.60;99.90;;;;;;6048031;23;20282;-72
2022/05/31 05:27:44;;;;;;;3.70;3.50;;;10.70;99.90;;;;;;6049662;23;20191;-73
2022/05/31 05:32:58;;;;;;;4.57;4.18;;;10.80;99.90;;;;;;6053602;23;20215;-74
2022/05/31 05:35:25;;;;;;;4.75;4.35;;;10.90;99.90;;;;;;6058327;23;20279;-74
2022/05/31 05:37:52;;;;;;;4.30;3.90;;;10.90;99.90;;;;;;6055512;23;20644;-74
2022/05/31 05:40:19;;;;;;;5.03;4.63;;;11.00;99.90;;;;;;6053560;23;20263;-74
2022/05/31 05:42:46;;;;;;;4.47;4.18;;;11.10;99.90;;;;;;6054043;23;20627;-74
2022/05/31 05:45:13;;;;;;;4.07;3.70;;;11.20;99.90;;;;;;6054600;23;20192;-74
2022/05/31 05:47:40;;;;;;;4.70;4.30;;;11.30;99.90;;;;;;6051263;23;20191;-74
2022/05/31 05:50:09;;;;;;;4.60;4.20;;;11.40;99.90;;;;;;6056722;23;20207;-75
2022/05/31 05:52:36;;;;;;;4.13;3.83;;;11.50;99.90;;;;;;6049476;23;20563;-74
2022/05/31 05:55:05;;;;;;;4.57;4.18;;;11.60;99.90;;;;;;6053858;23;20260;-75
2022/05/31 05:57:32;;;;;;;4.13;3.83;;;11.80;99.90;;;;;;6053423;23;20222;-75
2022/05/31 05:59:59;;;;;;;4.18;3.88;;;12.00;99.90;;;;;;6055021;23;20267;-75
2022/05/31 06:02:30;;;;;;;4.35;4.03;;;12.10;99.90;;;;;;6055752;23;20744;-74
2022/05/31 06:05:07;;;;;;;4.00;3.70;;;12.20;99.90;;;;;;6055785;23;20219;-74
2022/05/31 06:07:41;;;;;;;4.07;3.78;;;12.30;99.90;;;;;;6054846;23;20180;-74
2022/05/31 06:10:12;;;;;;;3.90;3.60;;;12.40;99.90;;;;;;6058198;23;20180;-74
2022/05/31 06:12:45;;;;;;;3.30;3.10;;;12.70;99.90;;;;;;6056508;23;20211;-75
2022/05/31 06:15:16;;;;;;;3.78;3.58;;;12.90;99.90;;;;;;6050379;23;20238;-75
2022/05/31 06:17:46;;;;;;;3.70;3.40;;;13.10;99.90;;;;;;6056378;23;20243;-74
2022/05/31 06:20:14;;;;;;;3.60;3.30;;;13.10;99.90;;;;;;6053974;23;21198;-74
2022/05/31 06:22:43;;;;;;;3.70;3.15;;;13.30;99.90;;;;;;6052231;23;20251;-74
2022/05/31 06:25:13;;;;;;;3.45;3.22;;;13.40;99.90;;;;;;6049248;23;20186;-75
2022/05/31 06:27:40;;;;;;;4.05;3.10;;;13.50;99.90;;;;;;6054524;23;20637;-74
2022/05/31 06:30:09;;;;;;;3.78;3.47;;;13.60;99.90;;;;;;6055906;23;20192;-75
2022/05/31 06:32:36;;;;;;;3.95;3.30;;;13.60;99.90;;;;;;6051290;23;20200;-76
2022/05/31 06:35:03;;;;;;;4.38;3.97;;;13.60;99.90;;;;;;6052311;23;20276;-75
2022/05/31 06:37:30;;;;;;;3.38;3.05;;;13.70;99.90;;;;;;6046689;23;20196;-75
2022/05/31 06:39:59;;;;;;;4.05;3.42;;;13.60;99.90;;;;;;6051947;23;20223;-75
2022/05/31 06:42:26;;;;;;;3.92;3.53;;;13.60;99.90;;;;;;6053819;23;20727;-76
2022/05/31 06:44:53;;;;;;;3.65;3.30;;;13.70;99.90;;;;;;6053842;23;20200;-75
2022/05/31 06:47:20;;;;;;;5.22;4.00;;;13.90;99.90;;;;;;6046562;23;20215;-76
2022/05/31 06:49:46;;;;;;;4.03;3.73;;;14.10;99.90;;;;;;6051056;23;20276;-76
2022/05/31 06:57:47;;;;;;;3.73;3.47;;;14.70;99.90;;;;;;6042655;23;20443;-76
2022/05/31 07:00:16;;;;;;;4.27;3.80;;;14.90;99.90;;;;;;6062841;23;20522;-75
2022/05/31 07:02:43;;;;;;;5.70;3.87;;;15.10;99.90;;;;;;6048380;23;20471;-76
2022/05/31 07:05:11;;;;;;;3.90;3.50;;;15.30;99.90;;;;;;6050223;23;20453;-76
2022/05/31 07:07:39;;;;;;;3.40;3.10;;;15.50;99.90;;;;;;6051516;23;20448;-76
2022/05/31 07:10:09;;;;;;;4.53;3.57;;;15.60;99.90;;;;;;6055426;23;20475;-76
2022/05/31 07:12:37;;;;;;;4.00;3.27;;;15.70;99.90;;;;;;6046246;23;20468;-76
2022/05/31 07:15:05;;;;;;;6.10;3.90;;;15.70;99.90;;;;;;6053377;23;20446;-76
2022/05/31 07:17:32;;;;;;;3.20;3.00;;;15.80;99.90;;;;;;6054681;23;20602;-76
2022/05/31 07:19:59;;;;;;;3.57;3.27;;;15.80;99.90;;;;;;6050142;23;20451;-76
2022/05/31 07:22:26;;;;;;;3.73;3.30;;;16.00;99.90;;;;;;6045944;23;20476;-76
2022/05/31 07:24:53;;;;;;;3.67;3.20;;;16.10;99.90;;;;;;6059387;23;20475;-76
2022/05/31 07:27:24;;;;;;;5.27;3.07;;;16.10;99.90;;;;;;6057347;23;20490;-76
2022/05/31 07:29:51;;;;;;;3.63;3.33;;;16.40;99.90;;;;;;6057777;23;20453;-76
2022/05/31 07:32:18;;;;;;;3.30;3.00;;;16.60;99.90;;;;;;6053619;23;20476;-76
2022/05/31 07:34:45;;;;;;;3.20;2.90;;;16.90;99.90;;;;;;6043032;23;20525;-76
2022/05/31 07:37:12;;;;;;;3.17;2.80;;;17.40;99.90;;;;;;6040063;23;20450;-76
2022/05/31 07:39:39;;;;;;;3.70;3.40;;;17.80;99.90;;;;;;6054303;23;20467;-76
2022/05/31 07:42:06;;;;;;;3.10;2.90;;;18.10;99.90;;;;;;6043334;23;20561;-76
2022/05/31 07:44:35;;;;;;;3.10;2.80;;;18.40;99.50;;;;;;6054532;23;20798;-76
2022/05/31 07:47:02;;;;;;;3.60;3.00;;;18.80;98.90;;;;;;6045783;23;20529;-76
2022/05/31 07:49:29;;;;;;;16.10;3.30;;;19.40;98.30;;;;;;6047642;23;20498;-76
2022/05/31 07:51:57;;;;;;;2.90;2.70;;;19.70;96.70;;;;;;6052411;23;20490;-76
2022/05/31 07:54:23;;;;;;;3.00;2.70;;;20.20;96.40;;;;;;6052255;23;20444;-76
2022/05/31 07:56:50;;;;;;;2.83;2.53;;;20.90;94.20;;;;;;6047094;23;20477;-76
2022/05/31 07:59:18;;;;;;;3.10;2.70;;;20.90;93.70;;;;;;6055723;23;20457;-76
2022/05/31 08:01:46;;;;;;;3.40;2.60;;;21.10;93.80;;;;;;6042271;23;20889;-76
2022/05/31 08:04:14;;;;;;;3.70;2.50;;;21.60;92.50;;;;;;6055471;23;20994;-74
2022/05/31 08:06:42;;;;;;;3.07;2.77;;;22.10;90.40;;;;;;6049635;23;20812;-76
2022/05/31 08:09:08;;;;;;;5.27;2.93;;;22.50;88.00;;;;;;6042503;23;20878;-76
2022/05/31 08:11:37;;;;;;;3.70;3.07;;;22.70;88.70;;;;;;6053977;23;20546;-76
2022/05/31 08:14:04;;;;;;;3.90;2.93;;;22.90;85.70;;;;;;6051490;23;20571;-75
2022/05/31 08:16:33;;;;;;;3.57;3.27;;;23.00;83.40;;;;;;6058821;23;20443;-75
2022/05/31 08:19:02;;;;;;;3.20;2.70;;;22.90;83.40;;;;;;6052542;23;20479;-76
2022/05/31 08:21:31;;;;;;;4.23;2.50;;;22.70;84.10;;;;;;6053188;23;21257;-75
2022/05/31 08:24:01;;;;;;;4.37;2.90;;;22.90;83.10;;;;;;6042840;23;20460;-76
2022/05/31 08:26:29;;;;;;;3.20;2.90;;;22.90;82.20;;;;;;6047740;23;20443;-75
2022/05/31 08:28:56;;;;;;;3.20;2.90;;;23.00;82.90;;;;;;6047860;23;20448;-75
2022/05/31 08:31:25;;;;;;;3.10;2.90;;;23.20;82.40;;;;;;6042624;23;20929;-75
2022/05/31 08:33:52;;;;;;;2.33;2.13;;;23.60;81.60;;;;;;6051618;23;20860;-75
2022/05/31 08:36:21;;;;;;;3.37;2.43;;;24.00;80.40;;;;;;6053660;23;20856;-75
2022/05/31 08:38:48;;;;;;;2.40;2.20;;;24.20;77.70;;;;;;6054392;23;20561;-75
2022/05/31 08:41:24;;;;;;;3.33;2.07;;;24.20;75.60;;;;;;6054599;23;20562;-76
2022/05/31 08:44:01;;;;;;;2.63;2.20;;;24.20;75.40;;;;;;6053445;23;20617;-75
2022/05/31 08:46:37;;;;;;;2.20;1.97;;;24.20;74.80;;;;;;6047629;23;20490;-75
2022/05/31 08:49:11;;;;;;;3.17;2.30;;;24.10;74.20;;;;;;6039625;23;20515;-75
2022/05/31 08:51:54;;;;;;;2.33;2.13;;;23.80;74.40;;;;;;6048906;23;20467;-75
2022/05/31 08:57:14;;;;;;;2.70;2.40;;;24.00;73.30;;;;;;6002382;23;20913;-75
2022/05/31 08:59:47;;;;;;;3.17;2.93;;;24.00;73.00;;;;;;6049296;23;20449;-75
2022/05/31 09:02:19;;;;;;;3.30;2.70;;;23.60;74.30;;;;;;6048485;23;20479;-76
2022/05/31 09:04:54;;;;;;;2.40;2.03;;;23.50;73.30;;;;;;6037387;23;20476;-75
2022/05/31 09:07:28;;;;;;;7.90;2.30;;;23.60;74.40;;;;;;6050391;23;20447;-76
2022/05/31 09:09:59;;;;;;;4.70;2.60;;;23.60;73.60;;;;;;6046179;23;20456;-75
2022/05/31 09:12:33;;;;;;;3.40;2.87;;;23.60;74.00;;;;;;6055643;23;20439;-76
2022/05/31 09:15:07;;;;;;;3.00;2.33;;;23.60;73.30;;;;;;6047456;23;20954;-76
2022/05/31 09:17:44;;;;;;;2.80;2.30;;;24.00;73.90;;;;;;6054433;23;20461;-77
2022/05/31 09:20:15;;;;;;;2.30;2.10;;;24.40;72.70;;;;;;6053538;23;20459;-77
2022/05/31 09:22:47;;;;;;;4.03;2.77;;;25.40;72.50;;;;;;6056323;23;20523;-74
2022/05/31 09:25:14;;;;;;;2.30;2.03;;;26.50;67.50;;;;;;6057256;23;20447;-74
2022/05/31 09:27:44;;;;;;;4.83;2.27;;;27.30;67.60;;;;;;6052088;23;20428;-76
2022/05/31 09:30:16;;;;;;;4.83;2.43;;;28.10;64.40;;;;;;6057209;23;20978;-77
2022/05/31 09:33:04;;;;;;;3.00;2.27;;;28.60;62.30;;;;;;6054607;23;21021;-77
2022/05/31 09:35:45;;;;;;;7.03;3.20;;;29.30;60.50;;;;;;6052029;23;20504;-76
2022/05/31 09:39:00;;;;;;;2.93;2.60;;;29.40;57.00;;;;;;6057258;23;20439;-76
2022/05/31 09:41:34;;;;;;;3.20;2.37;;;28.70;57.00;;;;;;6001870;23;20474;-76
2022/05/31 09:44:14;;;;;;;2.53;2.00;;;28.50;58.10;;;;;;6051328;23;20458;-75
2022/05/31 09:46:46;;;;;;;3.10;2.37;;;28.60;58.50;;;;;;6049010;23;20439;-76
2022/05/31 09:49:26;;;;;;;2.80;2.13;;;28.70;58.40;;;;;;6046161;23;20431;-74
2022/05/31 09:51:53;;;;;;;2.47;2.27;;;29.50;57.70;;;;;;6048568;23;20466;-76
2022/05/31 09:57:14;;;;;;;3.47;2.80;;;30.20;56.00;;;;;;6057675;23;20439;-76
2022/05/31 09:59:48;;;;;;;2.27;2.07;;;30.70;54.90;;;;;;6061907;23;20511;-76
2022/05/31 10:02:27;;;;;;;1.80;1.70;;;31.00;54.20;;;;;;6058776;23;20443;-78
2022/05/31 10:05:11;;;;;;;2.00;1.80;;;31.50;53.90;;;;;;6053024;23;21015;-76
2022/05/31 10:07:40;;;;;;;3.00;1.97;;;31.90;52.40;;;;;;6058102;23;20442;-76
2022/05/31 10:10:09;;;;;;;2.60;2.00;;;32.20;51.90;;;;;;6057476;23;20459;-78
2022/05/31 10:12:47;;;;;;;3.43;2.20;;;32.10;51.40;;;;;;6057778;23;20446;-77
2022/05/31 10:15:32;;;;;;;2.40;2.20;;;32.20;50.60;;;;;;6065676;23;20435;-78
2022/05/31 10:18:04;;;;;;;3.77;2.13;;;31.70;51.10;;;;;;6062498;23;20479;-74
2022/05/31 10:20:32;;;;;;;2.23;1.70;;;31.70;50.90;;;;;;6051852;23;20733;-76
2022/05/31 10:23:00;;;;;;;2.37;2.17;;;31.70;51.70;;;;;;6055414;23;20470;-75
2022/05/31 10:25:31;;;;;;;2.50;1.80;;;32.00;51.10;;;;;;6055518;23;20449;-74
2022/05/31 10:28:02;;;;;;;2.47;2.27;;;31.90;50.60;;;;;;6052559;23;20448;-75
2022/05/31 10:30:30;;;;;;;5.03;2.10;;;31.80;50.50;;;;;;6049832;23;20469;-74
2022/05/31 10:32:59;;;;;;;2.70;1.77;;;31.90;50.20;;;;;;6053142;23;20462;-76
2022/05/31 10:35:29;;;;;;;2.13;1.93;;;31.50;49.70;;;;;;6056912;23;20436;-77
2022/05/31 10:37:59;;;;;;;3.43;2.20;;;30.90;49.40;;;;;;6056980;23;20922;-74
2022/05/31 10:40:34;;;;;;;4.43;1.73;;;30.50;48.90;;;;;;6053617;23;20468;-74
2022/05/31 10:43:12;;;;;;;2.60;1.80;;;30.30;49.60;;;;;;6053240;23;20516;-75
2022/05/31 10:45:39;;;;;;;2.83;1.90;;;30.20;48.10;;;;;;6051151;23;20509;-74
2022/05/31 10:48:07;;;;;;;2.70;2.40;;;30.30;48.80;;;;;;6051043;23;20447;-74
2022/05/31 10:50:44;;;;;;;3.67;2.17;;;30.00;49.70;;;;;;6054122;23;21041;-75
2022/05/31 10:53:18;;;;;;;3.77;2.00;;;30.10;49.70;;;;;;6054819;23;20432;-76
2022/05/31 10:55:53;;;;;;;2.30;1.90;;;30.00;49.50;;;;;;6059238;23;20431;-76
2022/05/31 10:58:42;;;;;;;2.73;2.30;;;30.00;50.40;;;;;;6052199;23;20999;-77
2022/05/31 11:01:19;;;;;;;2.40;2.20;;;29.70;50.50;;;;;;6052135;23;20463;-74
2022/05/31 11:03:55;;;;;;;2.97;2.20;;;29.40;49.90;;;;;;6057896;23;20523;-75
2022/05/31 11:06:37;;;;;;;2.83;1.90;;;29.50;50.20;;;;;;6057170;23;20519;-74
2022/05/31 11:12:04;;;;;;;2.33;2.07;;;30.00;48.90;;;;;;6010728;23;21307;-74
2022/05/31 11:14:57;;;;;;;2.53;1.70;;;29.80;49.30;;;;;;6051856;23;20435;-74
2022/05/31 11:17:38;;;;;;;2.23;1.77;;;29.50;48.40;;;;;;6054735;23;20858;-74
2022/05/31 11:20:09;;;;;;;2.87;1.77;;;29.40;49.10;;;;;;6049784;23;20978;-74
2022/05/31 11:22:48;;;;;;;3.10;1.70;;;29.20;47.10;;;;;;6058234;23;20799;-75
2022/05/31 11:25:51;;;;;;;2.50;1.87;;;28.70;47.60;;;;;;6055174;23;20550;-75
2022/05/31 11:28:41;;;;;;;1.60;1.40;;;28.40;47.60;;;;;;5966864;23;20914;-75
2022/05/31 11:31:30;;;;;;;3.23;1.70;;;28.00;47.70;;;;;;6052438;23;20966;-75
2022/05/31 11:34:15;;;;;;;3.13;1.47;;;28.00;48.10;;;;;;6059089;23;20470;-76
2022/05/31 11:36:56;;;;;;;1.73;1.40;;;27.70;46.50;;;;;;6052009;23;20435;-75
2022/05/31 11:39:42;;;;;;;2.67;1.87;;;28.10;48.20;;;;;;6056373;23;20450;-75
2022/05/31 11:42:19;;;;;;;2.40;1.50;;;28.40;48.30;;;;;;6053544;23;20435;-75
2022/05/31 11:45:09;;;;;;;2.50;1.80;;;28.00;47.40;;;;;;6056834;23;20492;-75
2022/05/31 11:48:04;;;;;;;2.60;1.50;;;27.70;48.90;;;;;;6054006;23;20471;-76
2022/05/31 11:50:44;;;;;;;1.70;1.60;;;27.60;49.80;;;;;;6051939;23;20827;-80
2022/05/31 11:53:39;;;;;;;5.63;1.70;;;27.70;50.00;;;;;;6054291;23;20439;-75
2022/05/31 11:56:15;;;;;;;1.70;1.57;;;27.50;48.40;;;;;;6021077;23;20445;-75
2022/05/31 11:58:48;;;;;;;2.40;1.80;;;27.70;48.50;;;;;;6055129;23;20930;-76
2022/05/31 12:01:21;;;;;;;1.73;1.57;;;27.80;48.10;;;;;;6058827;23;20455;-76
2022/05/31 12:03:59;;;;;;;3.33;1.90;;;27.90;48.20;;;;;;6050284;23;20896;-76
2022/05/31 12:06:38;;;;;;;2.10;1.90;;;27.90;47.00;;;;;;6054176;23;20939;-74
2022/05/31 12:09:14;;;;;;;1.60;1.50;;;28.00;47.20;;;;;;6057688;23;20435;-75
2022/05/31 12:11:49;;;;;;;2.93;1.50;;;28.10;46.90;;;;;;6054232;23;20489;-76
2022/05/31 12:14:16;;;;;;;2.37;1.77;;;28.10;46.60;;;;;;6048877;23;20431;-76
2022/05/31 12:16:44;;;;;;;2.47;1.80;;;28.00;46.70;;;;;;6051291;23;20432;-82
2022/05/31 12:19:20;;;;;;;2.67;1.40;;;27.50;46.60;;;;;;6057374;23;20451;-85
2022/05/31 12:21:51;;;;;;;4.57;1.90;;;27.10;47.00;;;;;;6055487;23;20923;-84
2022/05/31 12:24:22;;;;;;;2.00;1.90;;;27.00;47.50;;;;;;6056610;23;20810;-84
2022/05/31 12:26:55;;;;;;;1.93;1.73;;;27.30;47.90;;;;;;6053716;23;20520;-84
2022/05/31 12:29:27;;;;;;;2.87;2.03;;;27.40;47.40;;;;;;6052540;23;20498;-85
2022/05/31 12:32:27;;;;;;;2.20;1.70;;;27.40;48.00;;;;;;6055720;23;20832;-84
2022/05/31 12:34:56;;;;;;;2.33;1.40;;;27.60;46.80;;;;;;6052259;23;20993;-85
2022/05/31 12:37:24;;;;;;;1.40;1.30;;;27.90;46.50;;;;;;6055724;23;20474;-88
2022/05/31 12:39:51;;;;;;;2.33;1.60;;;28.10;45.40;;;;;;6054371;23;20531;-88
2022/05/31 12:42:38;;;;;;;2.70;1.50;;;28.10;44.90;;;;;;6054210;23;20446;-88
2022/05/31 12:45:21;;;;;;;2.03;1.73;;;27.90;44.80;;;;;;6053519;23;20526;-87
2022/05/31 12:47:56;;;;;;;1.80;1.67;;;27.40;44.90;;;;;;6053792;23;20435;-86
2022/05/31 12:50:51;;;;;;;1.83;1.73;;;27.00;45.50;;;;;;6052773;23;20860;-83
2022/05/31 12:53:23;;;;;;;1.80;1.60;;;26.70;46.30;;;;;;6043590;23;20508;-86
2022/05/31 12:55:57;;;;;;;2.00;1.70;;;26.50;46.90;;;;;;6053067;23;20485;-84
2022/05/31 12:58:45;;;;;;;2.20;1.80;;;26.70;46.90;;;;;;6055673;23;20923;-84
2022/05/31 13:01:35;;;;;;;1.73;1.60;;;26.50;46.90;;;;;;6051998;23;20521;-83
2022/05/31 13:04:29;;;;;;;2.30;1.60;;;26.20;47.20;;;;;;6062947;23;20461;-84
2022/05/31 13:07:19;;;;;;;2.20;1.53;;;26.00;47.60;;;;;;6057660;23;20481;-85
2022/05/31 13:09:48;;;;;;;3.20;1.50;;;26.50;47.70;;;;;;6055035;23;21000;-84
2022/05/31 13:20:56;;;;;;;1.60;1.50;;;26.40;45.90;;;;;;6050860;23;20522;-84
2022/05/31 13:23:28;;;;;;;1.70;1.60;;;26.60;45.00;;;;;;6059509;23;20431;-79
2022/05/31 13:26:00;;;;;;;2.07;1.70;;;26.50;45.70;;;;;;6055938;23;20686;-80
2022/05/31 13:28:30;;;;;;;3.63;1.53;;;26.70;46.20;;;;;;6037323;23;20518;-79
2022/05/31 13:31:01;;;;;;;2.20;1.60;;;27.20;46.20;;;;;;6043435;23;20494;-79
2022/05/31 13:33:30;;;;;;;2.10;1.30;;;28.30;45.50;;;;;;6047163;23;20446;-79
2022/05/31 13:36:02;;;;;;;2.27;1.60;;;29.90;44.90;;;;;;6054436;23;20475;-80
2022/05/31 13:38:34;;;;;;;2.00;1.80;;;32.10;43.30;;;;;;6053166;23;20442;-80
2022/05/31 13:41:04;;;;;;;1.80;1.50;;;33.00;41.10;;;;;;6053773;23;20455;-80